Time;durP1;ratioP1;P1;durP2;ratioP2;P2;SDS_P1;SDS_P2;PMS_P1;PMS_P2;Temp;Humidity;BMP_temperature;BMP_pressure;BME280_temperature;BME280_humidity;BME280_pressure;Samples;Min_cycle;Max_cycle;Signal;HPM_P1;HPM_P2
2021/12/19 00:00:19;;;;;;;10.20;7.40;;;7.70;99.90;;;;;;4979925;28;89947;-41
2021/12/19 00:03:35;;;;;;;9.77;7.55;;;7.70;99.90;;;;;;4980244;28;89937;-41
2021/12/19 00:08:48;;;;;;;9.82;7.05;;;7.60;99.90;;;;;;4983345;28;89699;-41
2021/12/19 00:11:14;;;;;;;12.27;7.80;;;7.60;99.90;;;;;;4983448;28;91159;-37
2021/12/19 00:13:42;;;;;;;10.40;7.55;;;7.60;99.90;;;;;;4983377;28;89985;-36
2021/12/19 00:16:09;;;;;;;7.57;6.78;;;7.70;99.90;;;;;;4983286;28;89999;-42
2021/12/19 00:18:34;;;;;;;8.85;7.32;;;7.70;99.90;;;;;;4983558;28;87510;-40
2021/12/19 00:21:00;;;;;;;10.27;6.50;;;7.60;99.90;;;;;;4983391;28;90496;-38
2021/12/19 00:23:27;;;;;;;9.38;7.90;;;7.60;99.90;;;;;;4982965;28;89104;-41
2021/12/19 00:25:53;;;;;;;7.82;5.57;;;7.60;99.90;;;;;;4983069;28;88015;-39
2021/12/19 00:28:19;;;;;;;7.50;6.78;;;7.60;99.90;;;;;;4983271;28;87959;-36
2021/12/19 00:30:44;;;;;;;13.23;7.35;;;7.60;99.90;;;;;;4982615;28;90512;-37
2021/12/19 00:33:10;;;;;;;7.57;6.85;;;7.60;99.90;;;;;;4983192;28;89477;-40
2021/12/19 00:35:36;;;;;;;7.60;6.63;;;7.60;99.90;;;;;;4982987;28;88764;-39
2021/12/19 00:38:02;;;;;;;7.80;6.82;;;7.60;99.90;;;;;;4982267;28;89056;-44
2021/12/19 00:40:28;;;;;;;10.57;7.78;;;7.60;99.90;;;;;;4983779;28;90579;-39
2021/12/19 00:43:04;;;;;;;8.93;7.72;;;7.60;99.90;;;;;;4979790;28;90050;-38
2021/12/19 00:45:33;;;;;;;7.57;6.70;;;7.70;99.90;;;;;;4983632;28;88462;-41
2021/12/19 00:48:01;;;;;;;9.23;6.80;;;7.60;99.90;;;;;;4983115;28;88920;-44
2021/12/19 00:50:27;;;;;;;8.68;5.75;;;7.60;99.90;;;;;;4982902;28;90069;-39
2021/12/19 00:52:53;;;;;;;7.28;6.53;;;7.60;99.90;;;;;;4980782;28;89873;-37
2021/12/19 00:55:22;;;;;;;10.50;6.43;;;7.60;99.90;;;;;;4983386;28;88138;-40
2021/12/19 00:57:49;;;;;;;8.18;6.15;;;7.60;99.90;;;;;;4982994;28;87542;-42
2021/12/19 01:00:18;;;;;;;7.43;6.03;;;7.60;99.90;;;;;;4982069;28;91312;-37
2021/12/19 01:02:44;;;;;;;7.20;6.47;;;7.60;99.90;;;;;;4982143;28;89685;-38
2021/12/19 01:05:10;;;;;;;15.07;6.50;;;7.60;99.90;;;;;;4982552;28;89719;-42
2021/12/19 01:07:36;;;;;;;7.07;5.93;;;7.60;99.90;;;;;;4983478;28;89268;-38
2021/12/19 01:10:04;;;;;;;9.73;6.95;;;7.60;99.90;;;;;;4982444;28;90372;-46
2021/12/19 01:12:31;;;;;;;7.32;5.75;;;7.60;99.90;;;;;;4982455;28;89795;-39
2021/12/19 01:14:57;;;;;;;8.90;6.50;;;7.70;99.90;;;;;;4982322;28;87552;-40
2021/12/19 01:17:23;;;;;;;11.88;7.60;;;7.70;99.90;;;;;;4982194;28;88682;-42
2021/12/19 01:19:49;;;;;;;12.20;7.20;;;7.60;99.90;;;;;;4981579;28;90680;-43
2021/12/19 01:22:15;;;;;;;9.15;7.35;;;7.70;99.90;;;;;;4982830;28;89606;-40
2021/12/19 01:24:40;;;;;;;8.30;7.43;;;7.70;99.90;;;;;;4982163;28;88272;-41
2021/12/19 01:27:06;;;;;;;9.85;7.70;;;7.70;99.90;;;;;;4982468;28;87610;-39
2021/12/19 01:29:32;;;;;;;10.27;6.38;;;7.70;99.90;;;;;;4982411;28;90027;-41
2021/12/19 01:31:58;;;;;;;7.95;5.97;;;7.70;99.90;;;;;;4981344;28;89876;-44
2021/12/19 01:34:23;;;;;;;9.45;7.22;;;7.70;99.90;;;;;;4982723;28;89946;-37
2021/12/19 01:36:49;;;;;;;8.05;6.25;;;7.70;99.90;;;;;;4982466;28;88772;-41
2021/12/19 01:39:15;;;;;;;11.07;7.18;;;7.70;99.90;;;;;;4982124;28;90159;-41
2021/12/19 01:41:53;;;;;;;12.07;7.97;;;7.70;99.90;;;;;;4981457;28;91333;-45
2021/12/19 01:44:20;;;;;;;13.07;7.72;;;7.70;99.90;;;;;;4982204;28;89686;-35
2021/12/19 01:46:46;;;;;;;15.68;7.47;;;7.60;99.90;;;;;;4981905;28;90421;-38
2021/12/19 01:49:17;;;;;;;10.43;7.72;;;7.60;99.90;;;;;;4982650;28;90454;-40
2021/12/19 01:51:43;;;;;;;13.95;8.75;;;7.60;99.90;;;;;;4981452;28;89606;-34
2021/12/19 01:54:09;;;;;;;17.27;8.95;;;7.60;99.90;;;;;;4981674;28;88650;-40
2021/12/19 01:56:35;;;;;;;10.18;8.05;;;7.70;99.90;;;;;;4981993;28;90023;-46
2021/12/19 01:59:01;;;;;;;11.13;8.10;;;7.70;99.90;;;;;;4982098;28;90331;-39
2021/12/19 02:01:27;;;;;;;12.15;7.38;;;7.80;99.90;;;;;;4981721;28;89956;-38
2021/12/19 02:03:53;;;;;;;5.93;5.35;;;7.70;99.90;;;;;;4980038;28;88345;-39
2021/12/19 02:06:19;;;;;;;10.15;4.93;;;7.80;99.90;;;;;;4981846;28;89204;-41
2021/12/19 02:08:48;;;;;;;5.53;4.28;;;7.70;99.90;;;;;;4981641;28;90210;-44
2021/12/19 02:11:15;;;;;;;5.15;3.38;;;7.70;99.90;;;;;;4981886;28;89772;-37
2021/12/19 02:13:42;;;;;;;3.78;3.25;;;7.80;99.90;;;;;;4982059;28;88098;-44
2021/12/19 02:16:07;;;;;;;6.35;3.58;;;7.70;99.90;;;;;;4981549;28;88208;-41
2021/12/19 02:18:33;;;;;;;3.22;2.65;;;7.70;99.90;;;;;;4981828;28;90007;-39
2021/12/19 02:20:59;;;;;;;3.80;3.47;;;7.60;99.90;;;;;;4981573;28;89656;-37
2021/12/19 02:23:27;;;;;;;6.03;3.47;;;7.60;99.90;;;;;;4981817;28;88502;-38
2021/12/19 02:25:55;;;;;;;3.42;3.10;;;7.60;99.90;;;;;;4980985;28;88838;-44
2021/12/19 02:28:21;;;;;;;6.72;2.67;;;7.70;99.90;;;;;;4980813;28;90609;-42
2021/12/19 02:30:47;;;;;;;4.75;1.98;;;7.70;99.90;;;;;;4981078;28;89842;-38
2021/12/19 02:33:19;;;;;;;1.60;1.50;;;7.70;99.90;;;;;;4981157;28;88669;-39
2021/12/19 02:35:53;;;;;;;5.90;1.60;;;7.70;99.90;;;;;;4981238;28;87614;-39
2021/12/19 02:49:29;;;;;;;2.78;1.02;;;7.50;99.90;;;;;;4961100;28;90130;-39
2021/12/19 02:51:55;;;;;;;1.25;1.10;;;7.60;99.90;;;;;;4960738;28;89547;-43
2021/12/19 02:54:22;;;;;;;1.23;1.13;;;7.50;99.90;;;;;;4962025;28;89126;-41
2021/12/19 02:56:49;;;;;;;2.17;1.23;;;7.50;99.90;;;;;;4959826;28;87675;-38
2021/12/19 02:59:15;;;;;;;2.55;1.42;;;7.60;99.90;;;;;;4961612;28;90433;-38
2021/12/19 03:01:43;;;;;;;1.15;1.05;;;7.60;99.90;;;;;;4961225;28;90802;-45
2021/12/19 03:04:09;;;;;;;2.23;1.17;;;7.50;99.90;;;;;;4961356;28;88807;-41
2021/12/19 03:06:34;;;;;;;2.40;1.02;;;7.60;99.90;;;;;;4960798;28;88562;-40
2021/12/19 03:09:06;;;;;;;1.10;0.95;;;7.50;99.90;;;;;;4961836;28;90385;-36
2021/12/19 03:19:38;;;;;;;1.10;1.10;;;7.50;99.90;;;;;;4961165;28;90352;-45
2021/12/19 03:22:03;;;;;;;0.65;0.60;;;7.60;99.90;;;;;;4960732;28;89565;-41
2021/12/19 03:24:29;;;;;;;1.15;0.85;;;7.50;99.90;;;;;;4947505;28;90331;-46
2021/12/19 03:26:54;;;;;;;3.47;1.80;;;7.50;99.90;;;;;;4941681;28;87892;-37
2021/12/19 03:29:20;;;;;;;1.60;1.50;;;7.60;99.90;;;;;;4941396;28;89815;-36
2021/12/19 03:31:46;;;;;;;2.83;1.55;;;7.60;99.90;;;;;;4940662;28;89883;-36
2021/12/19 03:34:12;;;;;;;1.50;1.35;;;7.60;99.90;;;;;;4941224;28;90382;-38
2021/12/19 03:36:38;;;;;;;3.90;2.00;;;7.60;99.90;;;;;;4941350;28;88621;-43
2021/12/19 03:39:13;;;;;;;1.30;1.17;;;7.60;99.90;;;;;;4941483;28;90335;-36
2021/12/19 03:41:40;;;;;;;5.45;1.33;;;7.80;99.90;;;;;;4944335;28;88959;-36
2021/12/19 03:44:06;;;;;;;2.30;1.67;;;7.60;99.90;;;;;;4944797;28;89894;-44
2021/12/19 03:46:32;;;;;;;6.47;1.45;;;7.60;99.90;;;;;;4944889;28;88871;-39
2021/12/19 03:48:57;;;;;;;1.13;1.02;;;7.50;99.90;;;;;;4944338;28;90896;-39
2021/12/19 03:51:23;;;;;;;0.85;0.85;;;7.50;99.90;;;;;;4944712;28;89855;-42
2021/12/19 03:53:49;;;;;;;0.73;0.73;;;7.50;99.90;;;;;;4943873;28;88047;-40
2021/12/19 03:56:15;;;;;;;2.75;1.27;;;7.40;99.90;;;;;;4944792;28;89626;-37
2021/12/19 03:58:41;;;;;;;4.75;1.10;;;7.40;99.90;;;;;;4944605;28;90306;-42
2021/12/19 04:01:08;;;;;;;1.65;1.05;;;7.40;99.90;;;;;;4944172;28;89388;-41
2021/12/19 04:03:35;;;;;;;1.20;1.10;;;7.40;99.90;;;;;;4944234;28;87522;-35
2021/12/19 04:06:00;;;;;;;1.23;0.90;;;7.40;99.90;;;;;;4944677;28;89979;-39
2021/12/19 04:08:26;;;;;;;2.03;0.95;;;7.50;99.90;;;;;;4943757;28;90563;-41
2021/12/19 04:10:53;;;;;;;1.58;0.80;;;7.40;99.90;;;;;;4944187;28;90570;-41
2021/12/19 04:13:20;;;;;;;2.95;1.25;;;7.40;99.90;;;;;;4944205;28;88459;-41
2021/12/19 04:15:48;;;;;;;0.82;0.82;;;7.40;99.90;;;;;;4943882;28;88205;-40
2021/12/19 04:18:14;;;;;;;1.40;0.88;;;7.40;99.90;;;;;;4958472;28;90180;-44
2021/12/19 04:20:40;;;;;;;1.15;1.05;;;7.40;99.90;;;;;;4944349;28;89258;-35
2021/12/19 04:23:06;;;;;;;1.33;1.02;;;7.40;99.90;;;;;;4943602;28;89200;-40
2021/12/19 04:25:32;;;;;;;1.05;1.05;;;7.40;99.90;;;;;;4944714;28;88295;-37
2021/12/19 04:27:57;;;;;;;1.70;0.90;;;7.30;99.90;;;;;;4943377;28;90079;-39
2021/12/19 04:30:25;;;;;;;0.82;0.80;;;7.20;99.90;;;;;;4943716;28;89916;-42
2021/12/19 04:33:04;;;;;;;2.00;1.00;;;7.20;99.90;;;;;;4944054;28;88572;-36
2021/12/19 04:35:34;;;;;;;0.70;0.70;;;7.20;99.90;;;;;;4944435;28;88417;-41
2021/12/19 04:51:02;;;;;;;1.35;0.82;;;7.20;99.90;;;;;;4920696;28;90649;-35
2021/12/19 04:55:38;;;;;;;1.33;1.17;;;7.10;99.90;;;;;;4944076;28;87543;-38
2021/12/19 05:03:28;;;;;;;1.58;1.25;;;7.10;99.90;;;;;;4943539;28;89691;-38
2021/12/19 05:06:03;;;;;;;2.53;1.08;;;7.10;99.90;;;;;;4943837;28;88786;-42
2021/12/19 05:14:07;;;;;;;1.17;1.00;;;7.10;99.90;;;;;;4943584;28;90080;-34
2021/12/19 05:16:35;;;;;;;1.13;1.02;;;7.00;99.90;;;;;;4942659;28;87911;-42
2021/12/19 05:19:07;;;;;;;1.52;1.40;;;7.00;99.90;;;;;;4942984;28;88511;-42
2021/12/19 05:21:35;;;;;;;4.57;1.35;;;7.00;99.90;;;;;;4942761;28;90432;-42
2021/12/19 05:26:26;;;;;;;5.97;2.20;;;7.10;99.90;;;;;;4944155;28;89561;-35
2021/12/19 05:28:52;;;;;;;3.22;2.33;;;7.10;99.90;;;;;;4942717;28;89236;-36
2021/12/19 05:31:19;;;;;;;8.25;2.25;;;7.10;99.90;;;;;;4942740;28;90183;-40
2021/12/19 05:33:46;;;;;;;6.57;3.13;;;7.20;99.90;;;;;;4942439;28;90466;-42
2021/12/19 05:46:42;;;;;;;;;;;7.20;99.90;;;;;;4943481;28;88069;-42
2021/12/19 05:49:08;;;;;;;9.75;4.13;;;7.20;99.90;;;;;;4944387;28;89597;-33
2021/12/19 05:51:35;;;;;;;8.60;3.92;;;7.20;99.90;;;;;;4942835;28;91974;-39
2021/12/19 05:54:01;;;;;;;16.73;5.30;;;7.20;99.90;;;;;;4942153;28;90013;-40
2021/12/19 05:56:26;;;;;;;13.73;4.40;;;7.20;99.90;;;;;;4942592;28;87511;-36
2021/12/19 05:58:52;;;;;;;7.00;4.43;;;7.20;99.90;;;;;;4942699;28;87704;-40
2021/12/19 06:01:17;;;;;;;7.15;4.68;;;7.20;99.90;;;;;;4941591;28;90671;-39
2021/12/19 06:03:43;;;;;;;10.73;4.20;;;7.10;99.90;;;;;;4941785;28;89715;-40
2021/12/19 06:06:09;;;;;;;15.07;5.05;;;7.20;99.90;;;;;;4942147;28;88730;-41
2021/12/19 06:08:34;;;;;;;7.30;4.53;;;7.10;99.90;;;;;;4942363;28;88097;-37
2021/12/19 06:11:00;;;;;;;13.20;3.88;;;7.20;99.90;;;;;;4942737;28;90282;-35
2021/12/19 06:13:25;;;;;;;7.65;5.03;;;7.20;99.90;;;;;;4941778;28;89420;-37
2021/12/19 06:15:54;;;;;;;11.10;5.72;;;7.30;99.90;;;;;;4942376;28;88806;-43
2021/12/19 06:18:20;;;;;;;7.93;5.68;;;7.20;99.90;;;;;;4942539;28;89611;-38
2021/12/19 06:20:45;;;;;;;17.95;5.72;;;7.20;99.90;;;;;;4941462;28;90693;-38
2021/12/19 06:23:11;;;;;;;16.15;6.43;;;7.20;99.90;;;;;;4942569;28;89840;-36
2021/12/19 06:25:36;;;;;;;14.43;6.93;;;7.20;99.90;;;;;;4942298;28;87796;-41
2021/12/19 06:28:03;;;;;;;14.10;6.40;;;7.10;99.90;;;;;;4941784;28;89119;-36
2021/12/19 06:30:29;;;;;;;12.13;7.45;;;7.20;99.90;;;;;;4942024;28;90600;-36
2021/12/19 06:32:54;;;;;;;14.90;7.88;;;7.30;99.90;;;;;;4941290;28;90045;-38
2021/12/19 06:35:22;;;;;;;15.05;7.15;;;7.20;99.90;;;;;;4942376;28;87511;-39
2021/12/19 06:37:49;;;;;;;11.00;8.20;;;7.20;99.90;;;;;;4942040;28;88928;-37
2021/12/19 06:40:17;;;;;;;22.38;8.80;;;7.30;99.90;;;;;;4941233;28;90175;-42
2021/12/19 06:42:44;;;;;;;16.52;7.30;;;7.40;99.90;;;;;;4941067;28;90366;-38
2021/12/19 06:45:11;;;;;;;14.82;7.60;;;7.30;99.90;;;;;;4942285;28;87558;-37
2021/12/19 06:47:37;;;;;;;13.13;6.80;;;7.30;99.90;;;;;;4941965;28;89804;-36
2021/12/19 06:50:03;;;;;;;13.07;6.47;;;7.30;99.90;;;;;;4941477;28;90147;-42
2021/12/19 06:52:29;;;;;;;15.65;8.02;;;7.30;99.90;;;;;;4941032;28;90636;-42
2021/12/19 06:54:54;;;;;;;11.95;8.88;;;7.20;99.90;;;;;;4941683;28;89513;-39
2021/12/19 06:57:20;;;;;;;18.77;7.88;;;7.20;99.90;;;;;;4941451;28;88639;-35
2021/12/19 06:59:47;;;;;;;19.20;8.65;;;7.20;99.90;;;;;;4941662;28;90806;-36
2021/12/19 07:02:15;;;;;;;13.00;7.88;;;7.30;99.90;;;;;;4941275;28;89744;-40
2021/12/19 07:04:41;;;;;;;21.40;9.10;;;7.30;99.90;;;;;;4941570;28;88357;-43
2021/12/19 07:07:07;;;;;;;17.85;8.10;;;7.40;99.90;;;;;;4942302;28;89026;-36
2021/12/19 07:09:32;;;;;;;25.08;9.25;;;7.40;99.90;;;;;;4941616;28;90002;-35
2021/12/19 07:11:58;;;;;;;15.43;7.53;;;7.40;99.90;;;;;;4941613;28;88017;-42
2021/12/19 07:14:23;;;;;;;10.60;7.22;;;7.40;99.90;;;;;;4944149;28;90097;-35
2021/12/19 07:16:49;;;;;;;13.60;7.15;;;7.30;99.90;;;;;;4944659;28;89077;-43
2021/12/19 07:19:15;;;;;;;15.27;7.05;;;7.30;99.90;;;;;;4944705;28;90328;-37
2021/12/19 07:21:40;;;;;;;15.82;7.03;;;7.20;99.90;;;;;;4944400;28;89597;-38
2021/12/19 07:24:06;;;;;;;8.75;6.32;;;7.30;99.90;;;;;;4945470;28;89230;-38
2021/12/19 07:26:32;;;;;;;12.45;7.15;;;7.30;99.90;;;;;;4945541;28;88026;-36
2021/12/19 07:28:58;;;;;;;18.70;8.25;;;7.30;99.90;;;;;;4944195;28;90901;-42
2021/12/19 07:31:24;;;;;;;16.17;7.30;;;7.30;99.90;;;;;;4944776;28;89249;-37
2021/12/19 07:33:50;;;;;;;12.07;7.25;;;7.20;99.90;;;;;;4944288;28;89207;-45
2021/12/19 07:36:18;;;;;;;12.50;7.40;;;7.20;99.90;;;;;;4945166;28;88291;-43
2021/12/19 07:38:59;;;;;;;15.00;7.80;;;7.20;99.90;;;;;;4943858;28;89990;-41
2021/12/19 07:41:25;;;;;;;11.48;6.15;;;7.30;99.90;;;;;;4944458;28;88598;-35
2021/12/19 07:43:50;;;;;;;12.85;6.75;;;7.30;99.90;;;;;;4944134;28;89964;-40
2021/12/19 07:46:16;;;;;;;16.13;7.25;;;7.30;99.90;;;;;;4944593;28;89978;-45
2021/12/19 07:48:42;;;;;;;7.50;6.15;;;7.20;99.90;;;;;;4944309;28;90350;-40
2021/12/19 07:51:07;;;;;;;14.77;6.75;;;7.20;99.90;;;;;;4944089;28;89545;-45
2021/12/19 07:53:33;;;;;;;13.73;5.72;;;7.20;99.90;;;;;;4944881;28;89807;-34
2021/12/19 07:55:59;;;;;;;11.30;5.50;;;7.20;99.90;;;;;;4944197;28;88690;-34
2021/12/19 07:58:25;;;;;;;14.32;5.68;;;7.20;99.90;;;;;;4944855;28;90108;-43
2021/12/19 08:00:51;;;;;;;12.70;6.55;;;7.20;99.90;;;;;;4942752;28;89466;-37
2021/12/19 08:03:16;;;;;;;9.38;5.63;;;7.20;99.90;;;;;;4944063;28;88199;-38
2021/12/19 08:05:42;;;;;;;15.57;6.00;;;7.20;99.90;;;;;;4943939;28;87932;-36
2021/12/19 08:08:10;;;;;;;9.57;5.82;;;7.20;99.90;;;;;;4948277;28;89957;-38
2021/12/19 08:13:03;;;;;;;16.17;5.00;;;7.20;99.90;;;;;;4944343;28;87603;-35
2021/12/19 08:15:29;;;;;;;9.53;4.70;;;7.20;99.90;;;;;;4944337;28;87750;-42
2021/12/19 08:17:55;;;;;;;11.10;5.55;;;7.20;99.90;;;;;;4943894;28;90234;-40
2021/12/19 08:20:21;;;;;;;10.57;5.90;;;7.20;99.90;;;;;;4942646;28;91372;-41
2021/12/19 08:22:47;;;;;;;10.18;4.47;;;7.20;99.90;;;;;;4941400;28;89493;-40
2021/12/19 08:25:13;;;;;;;7.85;4.22;;;7.20;99.90;;;;;;4944604;28;88522;-37
2021/12/19 08:27:40;;;;;;;15.35;6.72;;;7.20;99.90;;;;;;4961365;28;90332;-37
2021/12/19 08:30:08;;;;;;;9.18;4.03;;;7.20;99.90;;;;;;4958841;28;90915;-36
2021/12/19 08:32:34;;;;;;;12.23;4.95;;;7.20;99.90;;;;;;4961348;28;91969;-39
2021/12/19 08:35:00;;;;;;;13.07;6.03;;;7.20;99.90;;;;;;4961938;28;89518;-41
2021/12/19 08:37:26;;;;;;;12.00;4.70;;;7.30;99.90;;;;;;4961963;28;90135;-34
2021/12/19 08:39:52;;;;;;;13.35;5.72;;;7.30;99.90;;;;;;4961028;28;89613;-37
2021/12/19 08:42:18;;;;;;;12.25;5.10;;;7.20;99.90;;;;;;4975055;28;89620;-43
2021/12/19 08:44:44;;;;;;;18.30;5.22;;;7.30;99.90;;;;;;4960588;28;89690;-43
2021/12/19 08:47:11;;;;;;;14.90;5.53;;;7.30;99.90;;;;;;4962118;28;90209;-41
2021/12/19 08:49:37;;;;;;;23.77;5.57;;;7.30;99.90;;;;;;4961920;28;89913;-38
2021/12/19 08:52:03;;;;;;;9.75;5.47;;;7.30;99.90;;;;;;4961804;28;90318;-37
2021/12/19 08:54:29;;;;;;;14.63;5.50;;;7.30;99.90;;;;;;4961809;28;90772;-36
2021/12/19 08:56:55;;;;;;;9.88;4.63;;;7.30;99.90;;;;;;4961193;28;90601;-38
2021/12/19 08:59:21;;;;;;;10.82;5.45;;;7.40;99.90;;;;;;4961989;28;89971;-45
2021/12/19 09:01:48;;;;;;;13.63;5.13;;;7.40;99.90;;;;;;4961277;28;90415;-37
2021/12/19 09:04:14;;;;;;;10.85;4.30;;;7.30;99.90;;;;;;4961457;28;88907;-40
2021/12/19 09:06:39;;;;;;;11.77;4.30;;;7.40;99.90;;;;;;4961800;28;90832;-36
2021/12/19 09:09:05;;;;;;;7.63;3.55;;;7.40;99.90;;;;;;4960956;28;89829;-39
2021/12/19 09:11:32;;;;;;;7.60;4.07;;;7.40;99.90;;;;;;4960862;28;89066;-42
2021/12/19 09:13:58;;;;;;;13.27;4.20;;;7.40;99.90;;;;;;4961151;28;89114;-40
2021/12/19 09:16:25;;;;;;;11.48;4.45;;;7.40;99.90;;;;;;4960713;28;90331;-41
2021/12/19 09:18:50;;;;;;;18.55;5.88;;;7.40;99.90;;;;;;4959453;28;89534;-44
2021/12/19 09:21:16;;;;;;;10.30;4.38;;;7.50;99.90;;;;;;4959879;28;91062;-43
2021/12/19 09:23:42;;;;;;;13.93;4.22;;;7.40;99.90;;;;;;4957236;28;88597;-44
2021/12/19 09:26:07;;;;;;;5.65;4.35;;;7.50;99.90;;;;;;4948866;28;90718;-40
2021/12/19 09:28:33;;;;;;;9.13;4.38;;;7.50;99.90;;;;;;4955304;28;89140;-34
2021/12/19 09:30:58;;;;;;;14.38;5.60;;;7.50;99.90;;;;;;4960873;28;89731;-43
2021/12/19 09:33:24;;;;;;;8.40;4.43;;;7.50;99.90;;;;;;4960756;28;88678;-35
2021/12/19 09:35:50;;;;;;;14.98;4.38;;;7.50;99.90;;;;;;4958791;28;90330;-47
2021/12/19 09:38:15;;;;;;;11.07;5.05;;;7.50;99.90;;;;;;4942430;28;89568;-41
2021/12/19 09:40:43;;;;;;;13.23;5.53;;;7.50;99.90;;;;;;4945025;28;90190;-41
2021/12/19 09:43:31;;;;;;;10.85;4.63;;;7.50;99.90;;;;;;4946936;28;88766;-39
2021/12/19 09:46:00;;;;;;;;;;;7.50;99.90;;;;;;4946066;28;92310;-35
2021/12/19 09:48:26;;;;;;;;;;;7.50;99.90;;;;;;4944527;28;90565;-39
2021/12/19 09:50:51;;;;;;;8.40;5.20;;;7.60;99.90;;;;;;4937134;28;88811;-42
2021/12/19 09:53:17;;;;;;;13.77;5.20;;;7.60;99.90;;;;;;4942856;28;88172;-42
2021/12/19 09:55:44;;;;;;;13.00;5.20;;;7.60;99.90;;;;;;4942494;28;91023;-44
2021/12/19 09:58:09;;;;;;;8.30;3.78;;;7.50;99.90;;;;;;4933702;28;90342;-39
2021/12/19 10:00:35;;;;;;;11.35;4.47;;;7.60;99.90;;;;;;4932467;28;90337;-39
2021/12/19 10:03:01;;;;;;;12.45;4.60;;;7.60;99.90;;;;;;4930905;28;88361;-44
2021/12/19 10:05:28;;;;;;;22.90;5.07;;;7.70;99.90;;;;;;4930260;28;90374;-39
2021/12/19 10:07:55;;;;;;;12.55;5.22;;;7.70;99.90;;;;;;4930292;28;90358;-41
2021/12/19 10:10:36;;;;;;;10.13;4.20;;;7.70;99.90;;;;;;4938929;28;90834;-40
2021/12/19 10:13:02;;;;;;;8.52;4.15;;;7.70;99.90;;;;;;4930369;28;88866;-41
2021/12/19 10:15:31;;;;;;;12.95;4.55;;;7.70;99.90;;;;;;4928395;28;90237;-44
2021/12/19 10:18:06;;;;;;;9.68;4.60;;;7.70;99.90;;;;;;4928581;28;89937;-44
2021/12/19 10:20:47;;;;;;;8.98;3.42;;;7.80;99.90;;;;;;4929558;28;88876;-40
2021/12/19 10:23:23;;;;;;;15.90;4.80;;;7.90;99.90;;;;;;4929305;28;89516;-37
2021/12/19 10:26:15;;;;;;;11.75;4.28;;;7.80;99.90;;;;;;4928166;28;89265;-38
2021/12/19 10:28:57;;;;;;;9.57;4.30;;;7.90;99.90;;;;;;4927281;28;90667;-39
2021/12/19 10:31:25;;;;;;;11.00;4.85;;;7.90;99.90;;;;;;4929186;28;89946;-40
2021/12/19 10:33:52;;;;;;;15.40;7.57;;;7.90;99.90;;;;;;4937820;28;90435;-42
2021/12/19 10:36:19;;;;;;;7.88;4.50;;;7.90;99.90;;;;;;4928281;28;90680;-44
2021/12/19 10:38:50;;;;;;;9.05;4.30;;;7.90;99.90;;;;;;4927985;28;89981;-37
2021/12/19 10:41:17;;;;;;;14.57;3.17;;;7.90;99.90;;;;;;4929081;28;91480;-45
2021/12/19 10:43:56;;;;;;;7.45;3.75;;;8.00;99.90;;;;;;4928914;28;88161;-40
2021/12/19 10:46:31;;;;;;;12.85;4.85;;;8.00;99.90;;;;;;4928661;28;90631;-39
2021/12/19 10:48:58;;;;;;;8.20;4.57;;;8.00;99.90;;;;;;4935776;28;90526;-43
2021/12/19 10:51:25;;;;;;;12.07;3.75;;;8.00;99.90;;;;;;4946352;28;89993;-39
2021/12/19 10:53:56;;;;;;;6.97;4.35;;;8.00;99.90;;;;;;4934604;28;89415;-41
2021/12/19 10:56:24;;;;;;;14.65;4.85;;;8.00;99.90;;;;;;4928271;28;90061;-42
2021/12/19 10:58:56;;;;;;;;;;;8.00;99.90;;;;;;4928903;28;90833;-40
2021/12/19 11:01:47;;;;;;;8.65;3.70;;;8.10;99.90;;;;;;4930115;28;90892;-44
2021/12/19 11:04:18;;;;;;;11.93;3.15;;;8.20;99.90;;;;;;4924591;28;90018;-46
2021/12/19 11:06:52;;;;;;;7.28;3.25;;;8.10;99.90;;;;;;4938925;28;90717;-39
2021/12/19 11:09:23;;;;;;;10.10;3.63;;;8.20;99.90;;;;;;4928272;28;89126;-43
2021/12/19 11:12:03;;;;;;;14.20;4.25;;;8.20;99.90;;;;;;4940146;28;88985;-41
2021/12/19 11:14:31;;;;;;;11.27;3.13;;;8.20;99.90;;;;;;4937870;28;88602;-39
2021/12/19 11:17:06;;;;;;;7.38;3.30;;;8.20;99.90;;;;;;4939678;28;90980;-41
2021/12/19 11:19:33;;;;;;;12.40;3.72;;;8.20;99.90;;;;;;4928403;28;89926;-43
2021/12/19 11:21:59;;;;;;;7.60;3.38;;;8.20;99.90;;;;;;4943526;28;91262;-42
2021/12/19 11:24:25;;;;;;;10.77;3.65;;;8.20;99.90;;;;;;4942247;28;89905;-45
2021/12/19 11:26:56;;;;;;;7.03;3.55;;;8.20;99.90;;;;;;4939999;28;90706;-41
2021/12/19 11:29:23;;;;;;;9.27;3.70;;;8.20;99.90;;;;;;4937365;28;89883;-44
2021/12/19 11:31:54;;;;;;;7.00;3.65;;;8.30;99.90;;;;;;4917995;28;90296;-39
2021/12/19 11:34:32;;;;;;;9.93;3.05;;;8.30;99.90;;;;;;4936982;28;89732;-38
2021/12/19 11:37:00;;;;;;;7.73;4.77;;;8.30;99.90;;;;;;4927222;28;91174;-40
2021/12/19 11:39:30;;;;;;;4.97;2.58;;;8.30;99.90;;;;;;4927660;28;90234;-42
2021/12/19 11:42:14;;;;;;;7.93;4.05;;;8.30;99.90;;;;;;4927041;28;89434;-43
2021/12/19 11:47:37;;;;;;;13.10;4.00;;;8.30;99.90;;;;;;4928464;28;90284;-44
2021/12/19 11:50:39;;;;;;;15.63;3.93;;;8.20;99.90;;;;;;4929085;28;90770;-36
2021/12/19 11:53:08;;;;;;;6.20;3.70;;;8.20;99.90;;;;;;4926933;28;91090;-45
2021/12/19 11:55:46;;;;;;;10.75;3.58;;;8.30;99.90;;;;;;4935992;28;88554;-43
2021/12/19 11:58:11;;;;;;;;;;;8.40;99.90;;;;;;4928333;28;89371;-35
2021/12/19 12:00:50;;;;;;;11.48;3.75;;;8.40;99.90;;;;;;4930344;28;89976;-45
2021/12/19 12:03:16;;;;;;;7.57;2.97;;;8.30;99.90;;;;;;4931491;28;90150;-40
2021/12/19 12:06:12;;;;;;;13.45;3.15;;;8.40;99.90;;;;;;4931298;28;89104;-42
2021/12/19 12:08:38;;;;;;;10.20;3.10;;;8.30;99.90;;;;;;4934730;28;90526;-44
2021/12/19 12:11:03;;;;;;;16.50;4.38;;;8.30;99.90;;;;;;4942278;28;90206;-43
2021/12/19 12:13:34;;;;;;;8.50;3.25;;;8.30;99.90;;;;;;4932143;28;89783;-40
2021/12/19 12:16:43;;;;;;;11.05;3.42;;;8.30;99.90;;;;;;4931035;28;90635;-37
2021/12/19 12:19:09;;;;;;;17.05;5.45;;;8.40;99.90;;;;;;4930804;28;90612;-46
2021/12/19 12:21:46;;;;;;;9.43;4.20;;;8.40;99.90;;;;;;4930948;28;89417;-41
2021/12/19 12:24:12;;;;;;;11.00;3.60;;;8.40;99.90;;;;;;4930970;28;89355;-42
2021/12/19 12:26:57;;;;;;;8.95;3.92;;;8.40;99.90;;;;;;4931476;28;89114;-46
2021/12/19 12:29:23;;;;;;;11.30;3.53;;;8.50;99.90;;;;;;4931151;28;92225;-44
2021/12/19 12:31:51;;;;;;;10.45;4.45;;;8.40;99.90;;;;;;4935647;28;89726;-42
2021/12/19 12:34:18;;;;;;;16.97;5.10;;;8.40;99.90;;;;;;4935765;28;91072;-41
2021/12/19 12:36:45;;;;;;;14.87;4.60;;;8.50;99.90;;;;;;4930640;28;89381;-41
2021/12/19 12:39:19;;;;;;;15.00;3.88;;;8.50;99.90;;;;;;4930434;28;90713;-40
2021/12/19 12:44:16;;;;;;;6.70;3.85;;;8.50;99.90;;;;;;4931322;28;89368;-38
2021/12/19 12:46:42;;;;;;;15.95;4.30;;;8.40;99.90;;;;;;4930659;28;89176;-43
2021/12/19 12:49:12;;;;;;;16.25;4.15;;;8.40;99.90;;;;;;4929849;28;89447;-38
2021/12/19 12:51:41;;;;;;;7.63;4.07;;;8.50;99.90;;;;;;4938346;28;89832;-42
2021/12/19 12:54:13;;;;;;;10.07;3.95;;;8.50;99.90;;;;;;4934870;28;90054;-45
2021/12/19 12:56:44;;;;;;;18.25;4.78;;;8.50;99.90;;;;;;4933232;28;88970;-39
2021/12/19 12:59:11;;;;;;;11.23;3.83;;;8.50;99.90;;;;;;4929751;28;90145;-44
2021/12/19 13:01:41;;;;;;;11.43;3.20;;;8.40;99.90;;;;;;4936624;28;90399;-39
2021/12/19 13:04:07;;;;;;;8.57;3.53;;;8.50;99.90;;;;;;4949814;28;90036;-37
2021/12/19 13:06:42;;;;;;;12.43;4.13;;;8.50;99.90;;;;;;4959515;28;89861;-45
2021/12/19 13:13:18;;;;;;;14.30;5.40;;;8.50;99.90;;;;;;4959666;28;89083;-43
2021/12/19 13:15:44;;;;;;;12.47;4.27;;;8.50;99.90;;;;;;4958130;28;89673;-40
2021/12/19 13:18:09;;;;;;;10.45;3.97;;;8.50;99.90;;;;;;4959548;28;88984;-40
2021/12/19 13:20:36;;;;;;;17.70;5.43;;;8.50;99.90;;;;;;4957564;28;89208;-39
2021/12/19 13:23:03;;;;;;;13.40;4.38;;;8.50;99.90;;;;;;4959266;28;89429;-43
2021/12/19 13:25:37;;;;;;;11.65;4.88;;;8.50;99.90;;;;;;4958054;28;89698;-41
2021/12/19 13:28:05;;;;;;;8.02;3.28;;;8.40;99.90;;;;;;4959684;28;88790;-40
2021/12/19 13:30:34;;;;;;;11.30;4.35;;;8.40;99.90;;;;;;4958692;28;90551;-42
2021/12/19 13:33:00;;;;;;;;;;;8.40;99.90;;;;;;4973850;28;91637;-39
2021/12/19 13:35:33;;;;;;;16.95;4.43;;;8.40;99.90;;;;;;4959998;28;90005;-45
2021/12/19 13:38:19;;;;;;;14.90;5.40;;;8.40;99.90;;;;;;4959209;28;89902;-41
2021/12/19 13:40:50;;;;;;;25.27;5.63;;;8.50;99.90;;;;;;4959924;28;92573;-41
2021/12/19 13:43:24;;;;;;;10.85;4.13;;;8.40;99.90;;;;;;4960886;28;89556;-43
2021/12/19 13:46:26;;;;;;;12.60;4.65;;;8.40;99.90;;;;;;4960380;28;89606;-43
2021/12/19 13:49:51;;;;;;;;;;;8.40;99.90;;;;;;4959083;28;87873;-41
2021/12/19 13:55:10;;;;;;;22.25;4.03;;;8.50;99.90;;;;;;4772788;28;89497;-42
2021/12/19 13:57:36;;;;;;;13.70;4.43;;;8.40;99.90;;;;;;4947607;28;87918;-42
2021/12/19 14:00:09;;;;;;;11.20;4.03;;;8.40;99.90;;;;;;4963075;28;89312;-40
2021/12/19 14:02:39;;;;;;;12.38;4.00;;;8.40;99.90;;;;;;4975342;28;89741;-43
2021/12/19 14:05:53;;;;;;;10.20;4.43;;;8.60;99.90;;;;;;4975662;28;89980;-38
2021/12/19 14:08:31;;;;;;;19.20;4.60;;;8.40;99.90;;;;;;4959688;28;88730;-39
2021/12/19 14:11:25;;;;;;;11.80;5.10;;;8.40;99.90;;;;;;4974327;28;88890;-42
2021/12/19 14:14:29;;;;;;;17.67;5.07;;;8.30;99.90;;;;;;4974688;28;90659;-45
2021/12/19 14:17:10;;;;;;;14.63;5.72;;;8.30;99.90;;;;;;4974307;28;89124;-44